Miniplon — FIDV — position and weather

sailwx.info

Track history (hours):
 
Tides and Currents Weather Stations Pressure Air Temp Water Temp Dewpoint Dewpoint Depression Visibility Wind Speed Wind Dir Waves Ship Positions

Miniplon

Last reported at 2014-Nov-24 21:33 UTC. Time now 2014-Nov-24 21:45 UTC.
Position N 46°32' W 001°56'.

Length 22 m.

Type: SAR. MMSI: 228024600.

Date/timePositionNaut miles runAvg speedWind from/ knotsBaromVisibWave heightAir tempDewpointWater temp
2014-Nov-24 21:33N 46°32' W 001°56'6 6.0
2014-Nov-24 20:31N 46°30' W 001°47'0 0.2
2014-Nov-24 19:31N 46°30' W 001°47'  
2014-Nov-19 03:30N 46°28' W 001°51'5 5.7
2014-Nov-19 02:33N 46°33' W 001°54'8 2.5
2014-Nov-18 23:28N 46°41' W 001°57'0 0.0
2014-Nov-18 22:33N 46°41' W 001°57'0 0.0
2014-Nov-18 13:09N 46°40' W 001°56'0 0.1
2014-Nov-18 12:15N 46°41' W 001°56'0 0.0
2014-Nov-17 22:12N 46°40' W 001°56'0 0.3
2014-Nov-17 21:30N 46°40' W 001°56'0 0.0
2014-Nov-17 12:31N 46°41' W 001°56'0 0.1
2014-Nov-17 11:32N 46°40' W 001°56'0 0.0
2014-Nov-16 12:06N 46°41' W 001°57'0 0.6
2014-Nov-16 11:29N 46°40' W 001°56'1 0.8
2014-Nov-16 10:26N 46°40' W 001°57'8 8.9
2014-Nov-16 09:33N 46°32' W 001°53'  
Track history (hours):
 
Tides and Currents Weather Stations Pressure Air Temp Water Temp Dewpoint Dewpoint Depression Visibility Wind Speed Wind Dir Waves Ship Positions

Miniplon

Last reported at 2014-Nov-24 21:33 UTC. Time now 2014-Nov-24 21:45 UTC.
Position N 46°32' W 001°56'.

Length 22 m.

Type: SAR. MMSI: 228024600.

Date/timePositionNaut miles runAvg speedWind from/ knotsBaromVisibWave heightAir tempDewpointWater temp
2014-Nov-24 21:33N 46°32' W 001°56'6 6.0
2014-Nov-24 20:31N 46°30' W 001°47'0 0.2
2014-Nov-24 19:31N 46°30' W 001°47'  
2014-Nov-19 03:30N 46°28' W 001°51'5 5.7
2014-Nov-19 02:33N 46°33' W 001°54'8 2.5
2014-Nov-18 23:28N 46°41' W 001°57'0 0.0
2014-Nov-18 22:33N 46°41' W 001°57'0 0.0
2014-Nov-18 13:09N 46°40' W 001°56'0 0.1
2014-Nov-18 12:15N 46°41' W 001°56'0 0.0
2014-Nov-17 22:12N 46°40' W 001°56'0 0.3
2014-Nov-17 21:30N 46°40' W 001°56'0 0.0
2014-Nov-17 12:31N 46°41' W 001°56'0 0.1
2014-Nov-17 11:32N 46°40' W 001°56'0 0.0
2014-Nov-16 12:06N 46°41' W 001°57'0 0.6
2014-Nov-16 11:29N 46°40' W 001°56'1 0.8
2014-Nov-16 10:26N 46°40' W 001°57'8 8.9
2014-Nov-16 09:33N 46°32' W 001°53'  

Dump ship's entire track history